sensor_id;sensor_type;location;lat;lon;timestamp;pressure;altitude;pressure_sealevel;temperature;humidity
61086;BME280;46967;48.876;2.136;2023-08-24T00:00:10;101257.41;;;52.84;12.95
61086;BME280;46967;48.876;2.136;2023-08-24T00:02:35;101259.50;;;52.87;13.07
61086;BME280;46967;48.876;2.136;2023-08-24T00:05:00;101250.28;;;53.09;12.85
61086;BME280;46967;48.876;2.136;2023-08-24T00:07:26;101236.38;;;52.92;13.10
61086;BME280;46967;48.876;2.136;2023-08-24T00:09:53;101234.97;;;53.12;12.98
61086;BME280;46967;48.876;2.136;2023-08-24T00:12:18;101237.91;;;53.15;12.97
61086;BME280;46967;48.876;2.136;2023-08-24T00:14:43;101241.88;;;53.32;12.81
61086;BME280;46967;48.876;2.136;2023-08-24T00:17:09;101247.50;;;53.27;12.85
61086;BME280;46967;48.876;2.136;2023-08-24T00:19:34;101250.13;;;53.23;13.17
61086;BME280;46967;48.876;2.136;2023-08-24T00:21:59;101242.97;;;53.13;13.26
61086;BME280;46967;48.876;2.136;2023-08-24T00:24:25;101243.94;;;53.00;13.41
61086;BME280;46967;48.876;2.136;2023-08-24T00:26:50;101255.16;;;53.12;13.19
61086;BME280;46967;48.876;2.136;2023-08-24T00:29:15;101246.41;;;53.19;13.23
61086;BME280;46967;48.876;2.136;2023-08-24T00:31:41;101248.53;;;53.31;12.89
61086;BME280;46967;48.876;2.136;2023-08-24T00:34:06;101250.78;;;53.11;13.20
61086;BME280;46967;48.876;2.136;2023-08-24T00:36:31;101251.59;;;53.03;13.10
61086;BME280;46967;48.876;2.136;2023-08-24T00:38:57;101247.44;;;52.74;13.19
61086;BME280;46967;48.876;2.136;2023-08-24T00:41:22;101244.47;;;52.62;13.67
61086;BME280;46967;48.876;2.136;2023-08-24T00:43:50;101250.03;;;52.70;13.69
61086;BME280;46967;48.876;2.136;2023-08-24T00:46:16;101249.31;;;53.05;13.14
61086;BME280;46967;48.876;2.136;2023-08-24T00:48:42;101241.84;;;53.14;13.28
61086;BME280;46967;48.876;2.136;2023-08-24T00:51:07;101244.75;;;53.18;12.92
61086;BME280;46967;48.876;2.136;2023-08-24T00:53:33;101252.59;;;53.16;13.15
61086;BME280;46967;48.876;2.136;2023-08-24T00:55:59;101249.00;;;53.06;13.15
61086;BME280;46967;48.876;2.136;2023-08-24T00:58:26;101247.13;;;52.93;13.44
61086;BME280;46967;48.876;2.136;2023-08-24T01:00:52;101242.78;;;53.01;13.26
61086;BME280;46967;48.876;2.136;2023-08-24T01:03:18;101233.03;;;53.03;13.21
61086;BME280;46967;48.876;2.136;2023-08-24T01:05:44;101237.75;;;53.03;13.38
61086;BME280;46967;48.876;2.136;2023-08-24T01:08:10;101234.56;;;52.87;13.43
61086;BME280;46967;48.876;2.136;2023-08-24T01:10:46;101234.09;;;52.85;13.28
61086;BME280;46967;48.876;2.136;2023-08-24T01:13:19;101239.34;;;52.95;13.17
61086;BME280;46967;48.876;2.136;2023-08-24T01:15:59;101240.47;;;52.94;13.28
61086;BME280;46967;48.876;2.136;2023-08-24T01:18:30;101240.44;;;52.85;13.12
61086;BME280;46967;48.876;2.136;2023-08-24T01:20:57;101230.81;;;52.65;13.42
61086;BME280;46967;48.876;2.136;2023-08-24T01:23:55;101232.88;;;52.60;13.40
61086;BME280;46967;48.876;2.136;2023-08-24T01:26:22;101238.09;;;52.61;13.40
61086;BME280;46967;48.876;2.136;2023-08-24T01:28:49;101228.97;;;52.61;13.39
61086;BME280;46967;48.876;2.136;2023-08-24T01:31:15;101223.63;;;52.64;13.32
61086;BME280;46967;48.876;2.136;2023-08-24T01:33:42;101225.91;;;52.62;13.16
61086;BME280;46967;48.876;2.136;2023-08-24T01:36:08;101221.78;;;52.51;13.35
61086;BME280;46967;48.876;2.136;2023-08-24T01:38:35;101217.78;;;52.66;13.49
61086;BME280;46967;48.876;2.136;2023-08-24T01:41:19;101213.47;;;52.51;13.35
61086;BME280;46967;48.876;2.136;2023-08-24T01:43:49;101210.03;;;52.45;13.41
61086;BME280;46967;48.876;2.136;2023-08-24T01:46:19;101206.47;;;52.45;13.34
61086;BME280;46967;48.876;2.136;2023-08-24T01:48:46;101203.16;;;52.34;13.42
61086;BME280;46967;48.876;2.136;2023-08-24T01:51:12;101199.72;;;52.28;13.77
61086;BME280;46967;48.876;2.136;2023-08-24T01:53:39;101202.44;;;52.20;13.59
61086;BME280;46967;48.876;2.136;2023-08-24T01:56:12;101209.72;;;52.47;13.34
61086;BME280;46967;48.876;2.136;2023-08-24T01:58:37;101195.91;;;52.56;13.30
61086;BME280;46967;48.876;2.136;2023-08-24T02:01:04;101198.00;;;52.50;13.29
61086;BME280;46967;48.876;2.136;2023-08-24T02:03:30;101190.34;;;52.47;13.34
61086;BME280;46967;48.876;2.136;2023-08-24T02:05:56;101197.78;;;52.29;13.47
61086;BME280;46967;48.876;2.136;2023-08-24T02:08:21;101194.59;;;52.44;13.33
61086;BME280;46967;48.876;2.136;2023-08-24T02:10:46;101189.00;;;52.35;13.49
61086;BME280;46967;48.876;2.136;2023-08-24T02:13:12;101187.69;;;52.33;13.24
61086;BME280;46967;48.876;2.136;2023-08-24T02:15:38;101191.31;;;52.42;13.54
61086;BME280;46967;48.876;2.136;2023-08-24T02:18:05;101192.09;;;52.34;13.53
61086;BME280;46967;48.876;2.136;2023-08-24T02:20:34;101177.66;;;52.55;13.42
61086;BME280;46967;48.876;2.136;2023-08-24T02:23:00;101173.09;;;52.41;13.52
61086;BME280;46967;48.876;2.136;2023-08-24T02:25:25;101174.47;;;52.70;13.26
61086;BME280;46967;48.876;2.136;2023-08-24T02:27:50;101173.00;;;52.73;13.24
61086;BME280;46967;48.876;2.136;2023-08-24T02:30:16;101167.28;;;52.69;13.18
61086;BME280;46967;48.876;2.136;2023-08-24T02:32:41;101171.56;;;52.84;13.20
61086;BME280;46967;48.876;2.136;2023-08-24T02:35:07;101161.44;;;52.70;13.18
61086;BME280;46967;48.876;2.136;2023-08-24T02:37:33;101158.50;;;52.76;13.23
61086;BME280;46967;48.876;2.136;2023-08-24T02:39:58;101164.16;;;52.53;13.41
61086;BME280;46967;48.876;2.136;2023-08-24T02:42:24;101160.38;;;52.49;13.45
61086;BME280;46967;48.876;2.136;2023-08-24T02:44:49;101153.56;;;52.46;13.62
61086;BME280;46967;48.876;2.136;2023-08-24T02:47:14;101157.13;;;52.47;13.42
61086;BME280;46967;48.876;2.136;2023-08-24T02:49:40;101147.47;;;52.27;13.58
61086;BME280;46967;48.876;2.136;2023-08-24T02:52:05;101139.59;;;52.20;13.35
61086;BME280;46967;48.876;2.136;2023-08-24T02:54:30;101128.69;;;52.15;13.71
61086;BME280;46967;48.876;2.136;2023-08-24T02:56:56;101131.47;;;52.15;13.50
61086;BME280;46967;48.876;2.136;2023-08-24T02:59:21;101129.06;;;51.91;13.90
61086;BME280;46967;48.876;2.136;2023-08-24T03:01:46;101124.66;;;51.90;13.71
61086;BME280;46967;48.876;2.136;2023-08-24T03:04:12;101124.50;;;51.86;13.71
61086;BME280;46967;48.876;2.136;2023-08-24T03:06:37;101122.63;;;51.95;13.66
61086;BME280;46967;48.876;2.136;2023-08-24T03:09:03;101111.59;;;52.13;13.51
61086;BME280;46967;48.876;2.136;2023-08-24T03:11:31;101114.97;;;52.01;13.49
61086;BME280;46967;48.876;2.136;2023-08-24T03:13:56;101108.81;;;52.04;13.69
61086;BME280;46967;48.876;2.136;2023-08-24T03:16:22;101110.06;;;51.98;13.53
61086;BME280;46967;48.876;2.136;2023-08-24T03:18:47;101105.53;;;52.02;13.51
61086;BME280;46967;48.876;2.136;2023-08-24T03:21:12;101106.19;;;51.99;13.67
61086;BME280;46967;48.876;2.136;2023-08-24T03:23:38;101106.72;;;52.10;13.65
61086;BME280;46967;48.876;2.136;2023-08-24T03:26:03;101096.88;;;51.95;13.80
61086;BME280;46967;48.876;2.136;2023-08-24T03:28:29;101097.41;;;51.97;13.55
61086;BME280;46967;48.876;2.136;2023-08-24T03:30:54;101092.81;;;51.92;13.78
61086;BME280;46967;48.876;2.136;2023-08-24T03:33:21;101094.13;;;51.95;13.53
61086;BME280;46967;48.876;2.136;2023-08-24T03:35:46;101096.63;;;52.05;13.60
61086;BME280;46967;48.876;2.136;2023-08-24T03:38:12;101096.25;;;51.98;13.58
61086;BME280;46967;48.876;2.136;2023-08-24T03:40:37;101090.59;;;52.12;13.73
61086;BME280;46967;48.876;2.136;2023-08-24T03:43:03;101093.22;;;52.08;13.60
61086;BME280;46967;48.876;2.136;2023-08-24T03:45:28;101093.81;;;51.96;13.71
61086;BME280;46967;48.876;2.136;2023-08-24T03:47:53;101091.72;;;52.11;13.33
61086;BME280;46967;48.876;2.136;2023-08-24T03:50:19;101088.66;;;52.12;13.30
61086;BME280;46967;48.876;2.136;2023-08-24T03:52:44;101083.78;;;52.09;13.36
61086;BME280;46967;48.876;2.136;2023-08-24T03:55:09;101081.66;;;52.06;13.59
61086;BME280;46967;48.876;2.136;2023-08-24T03:57:35;101075.66;;;52.13;13.47
61086;BME280;46967;48.876;2.136;2023-08-24T04:00:00;101084.75;;;52.13;13.67
61086;BME280;46967;48.876;2.136;2023-08-24T04:02:26;101091.72;;;52.11;13.62
61086;BME280;46967;48.876;2.136;2023-08-24T04:04:52;101078.69;;;52.03;13.60
61086;BME280;46967;48.876;2.136;2023-08-24T04:07:17;101079.69;;;52.07;13.74
61086;BME280;46967;48.876;2.136;2023-08-24T04:09:43;101078.75;;;52.20;13.46
61086;BME280;46967;48.876;2.136;2023-08-24T04:12:08;101071.59;;;52.28;13.48
61086;BME280;46967;48.876;2.136;2023-08-24T04:14:33;101066.56;;;52.21;13.22
61086;BME280;46967;48.876;2.136;2023-08-24T04:16:59;101071.06;;;52.08;13.62
61086;BME280;46967;48.876;2.136;2023-08-24T04:19:24;101074.50;;;52.14;13.73
61086;BME280;46967;48.876;2.136;2023-08-24T04:21:49;101066.78;;;52.33;13.30
61086;BME280;46967;48.876;2.136;2023-08-24T04:24:15;101067.56;;;52.34;13.35
61086;BME280;46967;48.876;2.136;2023-08-24T04:26:40;101063.69;;;52.44;13.42
61086;BME280;46967;48.876;2.136;2023-08-24T04:29:05;101071.41;;;52.15;13.41
61086;BME280;46967;48.876;2.136;2023-08-24T04:31:31;101063.09;;;52.15;13.56
61086;BME280;46967;48.876;2.136;2023-08-24T04:33:56;101054.19;;;52.27;13.19
61086;BME280;46967;48.876;2.136;2023-08-24T04:36:21;101048.31;;;52.20;13.33
61086;BME280;46967;48.876;2.136;2023-08-24T04:38:47;101048.78;;;52.05;13.57
61086;BME280;46967;48.876;2.136;2023-08-24T04:41:12;101043.91;;;52.02;13.42
61086;BME280;46967;48.876;2.136;2023-08-24T04:43:38;101043.06;;;52.01;13.52
61086;BME280;46967;48.876;2.136;2023-08-24T04:46:03;101036.41;;;52.02;13.43
61086;BME280;46967;48.876;2.136;2023-08-24T04:48:29;101033.00;;;52.14;13.29
61086;BME280;46967;48.876;2.136;2023-08-24T04:51:00;101026.47;;;52.01;13.47
61086;BME280;46967;48.876;2.136;2023-08-24T04:53:27;101032.75;;;51.93;13.58
61086;BME280;46967;48.876;2.136;2023-08-24T04:55:52;101026.47;;;52.01;13.59
61086;BME280;46967;48.876;2.136;2023-08-24T04:58:18;101031.84;;;51.97;13.46
61086;BME280;46967;48.876;2.136;2023-08-24T05:00:44;101036.78;;;51.78;13.61
61086;BME280;46967;48.876;2.136;2023-08-24T05:03:10;101036.66;;;51.83;13.40
61086;BME280;46967;48.876;2.136;2023-08-24T05:05:36;101039.09;;;51.53;13.94
61086;BME280;46967;48.876;2.136;2023-08-24T05:08:04;101031.28;;;51.46;13.63
61086;BME280;46967;48.876;2.136;2023-08-24T05:10:32;101035.47;;;51.67;13.72
61086;BME280;46967;48.876;2.136;2023-08-24T05:12:58;101043.28;;;51.73;13.58
61086;BME280;46967;48.876;2.136;2023-08-24T05:15:23;101048.28;;;51.62;13.60
61086;BME280;46967;48.876;2.136;2023-08-24T05:17:48;101047.22;;;51.50;13.67
61086;BME280;46967;48.876;2.136;2023-08-24T05:20:14;101053.84;;;51.40;13.71
61086;BME280;46967;48.876;2.136;2023-08-24T05:22:39;101047.88;;;51.24;13.92
61086;BME280;46967;48.876;2.136;2023-08-24T05:25:05;101045.72;;;51.21;14.06
61086;BME280;46967;48.876;2.136;2023-08-24T05:27:31;101042.19;;;50.84;13.86
61086;BME280;46967;48.876;2.136;2023-08-24T05:29:57;101027.38;;;50.94;14.22
61086;BME280;46967;48.876;2.136;2023-08-24T05:32:22;101032.06;;;50.93;14.18
61086;BME280;46967;48.876;2.136;2023-08-24T05:34:48;101034.31;;;50.91;14.01
61086;BME280;46967;48.876;2.136;2023-08-24T05:37:13;101029.09;;;50.89;14.05
61086;BME280;46967;48.876;2.136;2023-08-24T05:39:38;101035.28;;;50.72;13.76
61086;BME280;46967;48.876;2.136;2023-08-24T05:42:05;101025.38;;;50.71;14.07
61086;BME280;46967;48.876;2.136;2023-08-24T05:44:30;101022.22;;;50.50;13.79
61086;BME280;46967;48.876;2.136;2023-08-24T05:46:55;101006.28;;;50.61;13.83
61086;BME280;46967;48.876;2.136;2023-08-24T05:49:21;101000.34;;;49.90;14.04
61086;BME280;46967;48.876;2.136;2023-08-24T05:51:46;100996.31;;;50.37;13.79
61086;BME280;46967;48.876;2.136;2023-08-24T05:54:11;100995.38;;;50.42;13.64
61086;BME280;46967;48.876;2.136;2023-08-24T05:56:38;101012.97;;;50.46;13.43
61086;BME280;46967;48.876;2.136;2023-08-24T05:59:04;101019.72;;;50.40;13.66
61086;BME280;46967;48.876;2.136;2023-08-24T06:01:29;101020.28;;;50.65;13.59
61086;BME280;46967;48.876;2.136;2023-08-24T06:03:54;101018.03;;;50.67;13.59
61086;BME280;46967;48.876;2.136;2023-08-24T06:06:20;101024.69;;;50.66;13.44
61086;BME280;46967;48.876;2.136;2023-08-24T06:08:45;101029.56;;;50.69;13.42
61086;BME280;46967;48.876;2.136;2023-08-24T06:11:10;101026.91;;;50.78;13.15
61086;BME280;46967;48.876;2.136;2023-08-24T06:13:36;101031.25;;;50.92;13.29
61086;BME280;46967;48.876;2.136;2023-08-24T06:16:01;101026.13;;;50.86;12.87
61086;BME280;46967;48.876;2.136;2023-08-24T06:18:27;101031.97;;;50.84;13.47
61086;BME280;46967;48.876;2.136;2023-08-24T06:20:53;101038.91;;;50.96;13.40
61086;BME280;46967;48.876;2.136;2023-08-24T06:23:18;101039.41;;;50.98;13.19
61086;BME280;46967;48.876;2.136;2023-08-24T06:25:45;101037.81;;;51.05;13.11
61086;BME280;46967;48.876;2.136;2023-08-24T06:28:11;101036.50;;;51.03;13.36
61086;BME280;46967;48.876;2.136;2023-08-24T06:30:40;101036.47;;;50.94;13.54
61086;BME280;46967;48.876;2.136;2023-08-24T06:33:06;101035.06;;;51.05;13.47
61086;BME280;46967;48.876;2.136;2023-08-24T06:35:33;101031.59;;;51.00;13.10
61086;BME280;46967;48.876;2.136;2023-08-24T06:37:59;101024.97;;;51.01;13.31
61086;BME280;46967;48.876;2.136;2023-08-24T06:40:24;101033.00;;;51.11;13.60
61086;BME280;46967;48.876;2.136;2023-08-24T06:42:50;101023.28;;;50.91;13.13
61086;BME280;46967;48.876;2.136;2023-08-24T06:45:15;101028.44;;;51.06;12.97
61086;BME280;46967;48.876;2.136;2023-08-24T06:47:42;101033.03;;;51.20;13.46
61086;BME280;46967;48.876;2.136;2023-08-24T06:50:07;101020.66;;;51.17;13.21
61086;BME280;46967;48.876;2.136;2023-08-24T06:52:33;101024.13;;;51.23;12.88
61086;BME280;46967;48.876;2.136;2023-08-24T06:54:59;101019.06;;;51.16;12.88
61086;BME280;46967;48.876;2.136;2023-08-24T06:57:25;101009.50;;;51.22;13.04
61086;BME280;46967;48.876;2.136;2023-08-24T06:59:50;101009.25;;;51.33;13.19
61086;BME280;46967;48.876;2.136;2023-08-24T07:02:16;101007.63;;;51.32;13.19
61086;BME280;46967;48.876;2.136;2023-08-24T07:04:43;101026.47;;;51.30;13.02
61086;BME280;46967;48.876;2.136;2023-08-24T07:07:08;101034.25;;;51.27;12.75
61086;BME280;46967;48.876;2.136;2023-08-24T07:09:34;101040.91;;;51.26;13.09
61086;BME280;46967;48.876;2.136;2023-08-24T07:12:01;101032.88;;;51.16;12.89
61086;BME280;46967;48.876;2.136;2023-08-24T07:14:26;101037.06;;;51.14;12.68
61086;BME280;46967;48.876;2.136;2023-08-24T07:16:51;101050.19;;;51.31;13.02
61086;BME280;46967;48.876;2.136;2023-08-24T07:19:17;101050.94;;;51.45;13.17
61086;BME280;46967;48.876;2.136;2023-08-24T07:21:42;101051.53;;;51.64;12.98
61086;BME280;46967;48.876;2.136;2023-08-24T07:24:08;101039.97;;;51.62;13.13
61086;BME280;46967;48.876;2.136;2023-08-24T07:26:33;101032.50;;;51.63;13.42
61086;BME280;46967;48.876;2.136;2023-08-24T07:28:59;101027.56;;;51.60;13.39
61086;BME280;46967;48.876;2.136;2023-08-24T07:31:25;101022.84;;;51.52;13.02
61086;BME280;46967;48.876;2.136;2023-08-24T07:33:50;101015.78;;;51.68;12.86
61086;BME280;46967;48.876;2.136;2023-08-24T07:36:15;101005.72;;;51.72;12.63
61086;BME280;46967;48.876;2.136;2023-08-24T07:38:41;101002.78;;;51.77;12.10
61086;BME280;46967;48.876;2.136;2023-08-24T07:41:06;100995.72;;;52.03;12.59
61086;BME280;46967;48.876;2.136;2023-08-24T07:43:32;100994.84;;;51.93;12.61
61086;BME280;46967;48.876;2.136;2023-08-24T07:45:58;100989.03;;;51.95;12.88
61086;BME280;46967;48.876;2.136;2023-08-24T07:48:24;100975.56;;;52.11;12.93
61086;BME280;46967;48.876;2.136;2023-08-24T07:50:50;100981.59;;;52.22;12.66
61086;BME280;46967;48.876;2.136;2023-08-24T07:53:16;100981.63;;;52.30;12.29
61086;BME280;46967;48.876;2.136;2023-08-24T07:55:42;100992.72;;;52.30;11.91
61086;BME280;46967;48.876;2.136;2023-08-24T07:58:08;101019.66;;;51.98;12.01
61086;BME280;46967;48.876;2.136;2023-08-24T08:00:33;101036.59;;;51.66;12.44
61086;BME280;46967;48.876;2.136;2023-08-24T08:02:59;101037.81;;;51.59;12.52
61086;BME280;46967;48.876;2.136;2023-08-24T08:05:25;101030.72;;;52.07;12.35
61086;BME280;46967;48.876;2.136;2023-08-24T08:07:50;101025.91;;;52.30;12.13
61086;BME280;46967;48.876;2.136;2023-08-24T08:10:16;101015.44;;;52.10;11.70
61086;BME280;46967;48.876;2.136;2023-08-24T08:12:42;101024.88;;;52.26;11.77
61086;BME280;46967;48.876;2.136;2023-08-24T08:15:08;101011.44;;;52.51;11.35
61086;BME280;46967;48.876;2.136;2023-08-24T08:17:34;101015.44;;;52.10;12.17
61086;BME280;46967;48.876;2.136;2023-08-24T08:19:59;101014.75;;;51.95;12.11
61086;BME280;46967;48.876;2.136;2023-08-24T08:22:25;100992.38;;;52.32;11.91
61086;BME280;46967;48.876;2.136;2023-08-24T08:24:51;100986.69;;;52.46;11.66
61086;BME280;46967;48.876;2.136;2023-08-24T08:27:19;100991.94;;;52.65;11.47
61086;BME280;46967;48.876;2.136;2023-08-24T08:29:44;101005.19;;;52.19;12.01
61086;BME280;46967;48.876;2.136;2023-08-24T08:32:09;100997.91;;;52.32;11.80
61086;BME280;46967;48.876;2.136;2023-08-24T08:34:37;101002.13;;;52.21;12.50
61086;BME280;46967;48.876;2.136;2023-08-24T08:37:03;101007.97;;;51.39;13.10
61086;BME280;46967;48.876;2.136;2023-08-24T08:39:28;101033.41;;;51.90;12.95
61086;BME280;46967;48.876;2.136;2023-08-24T08:41:53;101035.66;;;50.80;13.79
61086;BME280;46967;48.876;2.136;2023-08-24T08:44:21;101028.31;;;51.74;12.94
61086;BME280;46967;48.876;2.136;2023-08-24T08:46:49;101045.72;;;51.43;12.89
61086;BME280;46967;48.876;2.136;2023-08-24T08:49:15;101060.63;;;51.96;12.63
61086;BME280;46967;48.876;2.136;2023-08-24T08:51:41;101061.00;;;50.96;13.27
61086;BME280;46967;48.876;2.136;2023-08-24T08:54:07;101068.06;;;51.56;13.02
61086;BME280;46967;48.876;2.136;2023-08-24T08:56:33;101051.41;;;51.16;13.12
61086;BME280;46967;48.876;2.136;2023-08-24T08:58:59;101058.09;;;51.23;12.75
61086;BME280;46967;48.876;2.136;2023-08-24T09:01:26;101041.81;;;51.76;12.44
61086;BME280;46967;48.876;2.136;2023-08-24T09:03:52;101030.63;;;51.81;12.60
61086;BME280;46967;48.876;2.136;2023-08-24T09:06:19;101019.63;;;51.27;12.93
61086;BME280;46967;48.876;2.136;2023-08-24T09:08:45;101002.63;;;51.42;12.86
61086;BME280;46967;48.876;2.136;2023-08-24T09:11:10;100990.72;;;52.05;12.69
61086;BME280;46967;48.876;2.136;2023-08-24T09:13:36;100985.97;;;52.14;12.45
61086;BME280;46967;48.876;2.136;2023-08-24T09:16:08;100986.47;;;52.07;12.33
61086;BME280;46967;48.876;2.136;2023-08-24T09:18:38;100980.28;;;52.28;12.83
61086;BME280;46967;48.876;2.136;2023-08-24T09:21:10;100992.97;;;52.03;12.42
61086;BME280;46967;48.876;2.136;2023-08-24T09:23:38;101015.38;;;51.92;12.55
61086;BME280;46967;48.876;2.136;2023-08-24T09:26:03;101021.94;;;52.14;12.68
61086;BME280;46967;48.876;2.136;2023-08-24T09:28:30;101027.88;;;52.39;12.09
61086;BME280;46967;48.876;2.136;2023-08-24T09:30:55;101029.63;;;52.26;12.01
61086;BME280;46967;48.876;2.136;2023-08-24T09:33:21;101035.16;;;52.26;11.74
61086;BME280;46967;48.876;2.136;2023-08-24T09:35:54;101037.78;;;52.31;12.12
61086;BME280;46967;48.876;2.136;2023-08-24T09:38:23;101048.22;;;51.94;12.09
61086;BME280;46967;48.876;2.136;2023-08-24T09:40:53;101047.34;;;52.16;11.82
61086;BME280;46967;48.876;2.136;2023-08-24T09:43:19;101053.38;;;52.27;11.94
61086;BME280;46967;48.876;2.136;2023-08-24T09:45:52;101073.66;;;52.62;12.33
61086;BME280;46967;48.876;2.136;2023-08-24T09:48:18;101082.78;;;52.63;12.00
61086;BME280;46967;48.876;2.136;2023-08-24T09:50:48;101090.81;;;51.53;12.53
61086;BME280;46967;48.876;2.136;2023-08-24T09:53:21;101092.09;;;52.09;12.27
61086;BME280;46967;48.876;2.136;2023-08-24T09:56:01;101091.66;;;51.31;12.82
61086;BME280;46967;48.876;2.136;2023-08-24T09:58:27;101096.28;;;50.85;13.23
61086;BME280;46967;48.876;2.136;2023-08-24T10:00:53;101102.00;;;51.48;12.88
61086;BME280;46967;48.876;2.136;2023-08-24T10:03:20;101092.25;;;51.81;12.66
61086;BME280;46967;48.876;2.136;2023-08-24T10:05:56;101090.72;;;51.98;12.48
61086;BME280;46967;48.876;2.136;2023-08-24T10:08:27;101094.00;;;51.23;12.96
61086;BME280;46967;48.876;2.136;2023-08-24T10:10:55;101072.69;;;52.01;12.58
61086;BME280;46967;48.876;2.136;2023-08-24T10:13:29;101057.19;;;52.40;12.17
61086;BME280;46967;48.876;2.136;2023-08-24T10:15:57;101055.91;;;52.72;12.15
61086;BME280;46967;48.876;2.136;2023-08-24T10:18:23;101057.03;;;52.80;12.18
61086;BME280;46967;48.876;2.136;2023-08-24T10:20:49;101050.19;;;53.03;12.29
61086;BME280;46967;48.876;2.136;2023-08-24T10:23:15;101068.28;;;53.01;12.20
61086;BME280;46967;48.876;2.136;2023-08-24T10:25:42;101078.06;;;52.63;12.04
61086;BME280;46967;48.876;2.136;2023-08-24T10:28:07;101083.91;;;51.73;12.56
61086;BME280;46967;48.876;2.136;2023-08-24T10:30:35;101083.34;;;51.93;12.49
61086;BME280;46967;48.876;2.136;2023-08-24T10:33:01;101083.41;;;52.02;12.43
61086;BME280;46967;48.876;2.136;2023-08-24T10:35:27;101080.66;;;52.02;12.60
61086;BME280;46967;48.876;2.136;2023-08-24T10:37:53;101084.47;;;52.24;12.34
61086;BME280;46967;48.876;2.136;2023-08-24T10:40:36;101093.38;;;51.72;12.28
61086;BME280;46967;48.876;2.136;2023-08-24T10:43:03;101101.84;;;51.53;13.02
61086;BME280;46967;48.876;2.136;2023-08-24T10:45:55;101102.41;;;51.41;12.84
61086;BME280;46967;48.876;2.136;2023-08-24T10:54:06;101097.31;;;52.20;12.48
61086;BME280;46967;48.876;2.136;2023-08-24T10:56:36;101102.94;;;52.06;12.30
61086;BME280;46967;48.876;2.136;2023-08-24T10:59:11;101087.91;;;51.89;12.58
61086;BME280;46967;48.876;2.136;2023-08-24T11:01:39;101109.53;;;52.27;12.65
61086;BME280;46967;48.876;2.136;2023-08-24T11:04:05;101126.66;;;52.29;12.31
61086;BME280;46967;48.876;2.136;2023-08-24T11:06:33;101130.69;;;51.92;12.65
61086;BME280;46967;48.876;2.136;2023-08-24T11:09:08;101111.47;;;51.87;12.62
61086;BME280;46967;48.876;2.136;2023-08-24T11:11:40;101102.69;;;51.85;12.80
61086;BME280;46967;48.876;2.136;2023-08-24T11:14:17;101102.84;;;51.79;12.83
61086;BME280;46967;48.876;2.136;2023-08-24T11:16:45;101114.06;;;51.29;13.71
61086;BME280;46967;48.876;2.136;2023-08-24T11:19:12;101163.41;;;50.58;13.98
61086;BME280;46967;48.876;2.136;2023-08-24T11:21:42;101204.91;;;49.73;14.95
61086;BME280;46967;48.876;2.136;2023-08-24T11:24:15;101183.72;;;50.34;14.62
61086;BME280;46967;48.876;2.136;2023-08-24T11:26:45;101196.03;;;51.20;13.93
61086;BME280;46967;48.876;2.136;2023-08-24T11:29:11;101176.03;;;51.37;14.02
61086;BME280;46967;48.876;2.136;2023-08-24T11:31:37;101161.16;;;51.46;14.07
61086;BME280;46967;48.876;2.136;2023-08-24T11:34:04;101179.41;;;51.56;14.08
61086;BME280;46967;48.876;2.136;2023-08-24T11:36:41;101217.63;;;51.32;14.54
61086;BME280;46967;48.876;2.136;2023-08-24T11:39:15;101232.38;;;50.99;14.34
61086;BME280;46967;48.876;2.136;2023-08-24T11:41:41;101258.38;;;50.98;14.53
61086;BME280;46967;48.876;2.136;2023-08-24T11:44:06;101254.34;;;51.18;14.54
61086;BME280;46967;48.876;2.136;2023-08-24T11:46:31;101256.53;;;51.44;13.98
61086;BME280;46967;48.876;2.136;2023-08-24T11:48:58;101245.38;;;51.49;14.16
61086;BME280;46967;48.876;2.136;2023-08-24T11:51:24;101241.28;;;51.46;14.46
61086;BME280;46967;48.876;2.136;2023-08-24T11:53:50;101253.63;;;51.63;14.41
61086;BME280;46967;48.876;2.136;2023-08-24T11:56:15;101250.00;;;51.76;14.58
61086;BME280;46967;48.876;2.136;2023-08-24T11:58:47;101234.63;;;52.15;14.86
61086;BME280;46967;48.876;2.136;2023-08-24T12:01:13;101221.41;;;52.35;15.31
61086;BME280;46967;48.876;2.136;2023-08-24T12:03:40;101217.59;;;52.22;14.34
61086;BME280;46967;48.876;2.136;2023-08-24T12:06:13;101209.66;;;52.29;14.85
61086;BME280;46967;48.876;2.136;2023-08-24T12:08:40;101193.94;;;52.56;14.89
61086;BME280;46967;48.876;2.136;2023-08-24T12:11:19;101183.19;;;52.46;14.73
61086;BME280;46967;48.876;2.136;2023-08-24T12:13:54;101167.41;;;52.55;15.09
61086;BME280;46967;48.876;2.136;2023-08-24T12:16:22;101173.81;;;52.64;15.17
61086;BME280;46967;48.876;2.136;2023-08-24T12:18:53;101177.88;;;52.67;14.81
61086;BME280;46967;48.876;2.136;2023-08-24T12:21:19;101166.66;;;52.72;14.95
61086;BME280;46967;48.876;2.136;2023-08-24T12:23:54;101166.00;;;52.75;14.86
61086;BME280;46967;48.876;2.136;2023-08-24T12:26:20;101157.53;;;52.80;14.90
61086;BME280;46967;48.876;2.136;2023-08-24T12:28:52;101162.41;;;52.83;14.98
61086;BME280;46967;48.876;2.136;2023-08-24T12:31:18;101154.28;;;52.96;15.18
61086;BME280;46967;48.876;2.136;2023-08-24T12:33:45;101145.97;;;52.87;14.83
61086;BME280;46967;48.876;2.136;2023-08-24T12:36:11;101146.94;;;52.74;14.82
61086;BME280;46967;48.876;2.136;2023-08-24T12:38:36;101138.84;;;52.28;14.91
61086;BME280;46967;48.876;2.136;2023-08-24T12:41:02;101130.06;;;51.95;14.98
61086;BME280;46967;48.876;2.136;2023-08-24T12:43:27;101106.56;;;52.06;15.14
61086;BME280;46967;48.876;2.136;2023-08-24T12:45:53;101086.34;;;52.06;15.22
61086;BME280;46967;48.876;2.136;2023-08-24T12:48:18;101055.97;;;52.23;15.14
61086;BME280;46967;48.876;2.136;2023-08-24T12:50:44;101027.16;;;52.24;15.53
61086;BME280;46967;48.876;2.136;2023-08-24T12:53:09;100992.72;;;52.30;15.28